Potters Bar, United Kingdom
Current Conditions -  °F | °C
As of 1:50 AM on Friday 19 Dec 2014 (Local Time) from EGWU Reporting Station
Broken Clouds Broken Clouds  
Wind Chill: 54°   Ceiling: 1200
Heat Index: 54°   Visibility: 6mi
Dew Point: 52°   Wind: 17mph
Humidity: 94%   Direction: 240°WSW
Pressure: 29.8"   Gusts: NA
Location:  51.69°N, 0.18°W
Report Text: EGWU 190150Z AUTO 24015KT 9999 // BKN012/// SCT021/// 12/11 Q1009
Loading
Personal Weather Stations






























Interactive Weather Map New forecast layout! Learn more

10-Day Weather Forecast

Advertisements
Track Severe Weather on mobile